Time;durP1;ratioP1;P1;durP2;ratioP2;P2;SDS_P1;SDS_P2;PMS_P1;PMS_P2;Temp;Humidity;BMP_temperature;BMP_pressure;BME280_temperature;BME280_humidity;BME280_pressure;Samples;Min_cycle;Max_cycle;Signal;HPM_P1;HPM_P2
2021/09/10 00:00:13;;;;;;;12.67;10.90;;;19.50;99.90;;;;;;4951705;28;20190;-77
2021/09/10 00:02:38;;;;;;;14.73;10.37;;;19.60;99.90;;;;;;4931867;28;20555;-76
2021/09/10 00:05:09;;;;;;;13.40;10.33;;;19.50;99.90;;;;;;4949241;28;20457;-77
2021/09/10 00:07:34;;;;;;;13.77;9.73;;;19.50;62.80;;;;;;4949627;28;20633;-77
2021/09/10 00:10:00;;;;;;;12.03;10.77;;;19.50;1.00;;;;;;4945883;28;20460;-77
2021/09/10 00:12:26;;;;;;;15.93;11.03;;;19.50;99.90;;;;;;4947438;28;20193;-77
2021/09/10 00:14:52;;;;;;;15.67;10.17;;;19.50;99.90;;;;;;4949228;28;20678;-77
2021/09/10 00:17:17;;;;;;;12.60;10.37;;;19.50;99.90;;;;;;4948545;28;20445;-77
2021/09/10 00:19:43;;;;;;;11.70;10.50;;;19.40;99.90;;;;;;4947231;28;20186;-77
2021/09/10 00:22:09;;;;;;;12.30;10.93;;;19.40;99.90;;;;;;4950105;28;20186;-77
2021/09/10 00:24:36;;;;;;;9.83;8.80;;;19.50;1.00;;;;;;4948306;28;20342;-77
2021/09/10 00:27:02;;;;;;;10.83;9.73;;;19.50;1.00;;;;;;4949112;28;20196;-77
2021/09/10 00:29:27;;;;;;;18.13;10.57;;;19.40;1.00;;;;;;4947538;28;20600;-77
2021/09/10 00:31:53;;;;;;;15.60;10.80;;;19.40;1.00;;;;;;4945429;28;20477;-77
2021/09/10 00:34:19;;;;;;;10.77;9.63;;;19.40;1.00;;;;;;4946855;28;20186;-77
2021/09/10 00:36:45;;;;;;;13.10;10.00;;;19.30;1.00;;;;;;4948885;28;20189;-77
2021/09/10 00:39:17;;;;;;;11.03;9.57;;;19.30;1.00;;;;;;4943878;28;20218;-77
2021/09/10 00:41:43;;;;;;;14.77;10.50;;;19.30;99.90;;;;;;4944309;28;20452;-77
2021/09/10 00:44:08;;;;;;;11.33;9.27;;;19.40;86.30;;;;;;4946140;28;20812;-77
2021/09/10 00:46:34;;;;;;;10.57;9.47;;;19.30;1.00;;;;;;4945551;28;22464;-77
2021/09/10 00:49:01;;;;;;;10.73;9.60;;;19.40;1.00;;;;;;4948813;28;20608;-77
2021/09/10 00:51:27;;;;;;;9.93;8.53;;;19.40;1.00;;;;;;4951143;28;20232;-77
2021/09/10 00:53:52;;;;;;;10.27;8.57;;;19.40;1.00;;;;;;4949625;28;21258;-77
2021/09/10 00:56:18;;;;;;;15.13;8.40;;;19.40;1.00;;;;;;4951242;28;20471;-77
2021/09/10 00:58:44;;;;;;;9.93;8.40;;;19.40;1.00;;;;;;4951831;28;20656;-77
2021/09/10 01:01:10;;;;;;;11.50;9.20;;;19.50;99.90;;;;;;4952381;28;20221;-77
2021/09/10 01:03:35;;;;;;;12.40;8.80;;;19.40;99.90;;;;;;4948062;28;20217;-77
2021/09/10 01:06:04;;;;;;;8.40;7.53;;;19.40;99.90;;;;;;4948630;28;21961;-77
2021/09/10 01:08:31;;;;;;;10.23;8.00;;;19.50;99.90;;;;;;4950533;28;20198;-77
2021/09/10 01:10:59;;;;;;;9.53;8.53;;;19.50;99.90;;;;;;4956380;28;20563;-77
2021/09/10 01:13:26;;;;;;;13.03;8.27;;;19.50;99.90;;;;;;4949923;28;20512;-77
2021/09/10 01:15:52;;;;;;;16.20;8.00;;;19.50;99.90;;;;;;4948819;28;20551;-77
2021/09/10 01:18:18;;;;;;;11.67;8.47;;;19.50;99.90;;;;;;4948722;28;20446;-77
2021/09/10 01:20:47;;;;;;;9.80;8.13;;;19.50;99.90;;;;;;4955500;28;20450;-77
2021/09/10 01:23:13;;;;;;;11.60;9.27;;;19.50;99.90;;;;;;4938500;28;20981;-77
2021/09/10 01:25:38;;;;;;;10.00;8.70;;;19.50;99.90;;;;;;4952376;28;20451;-77
2021/09/10 01:28:04;;;;;;;11.40;8.33;;;19.40;99.90;;;;;;4956799;28;20720;-77
2021/09/10 01:30:33;;;;;;;9.63;8.50;;;19.40;99.90;;;;;;4950696;28;20221;-77
2021/09/10 01:33:06;;;;;;;9.90;8.87;;;19.40;1.00;;;;;;4950289;28;20220;-77
2021/09/10 01:35:31;;;;;;;10.27;9.23;;;19.40;1.00;;;;;;4954338;28;20457;-77
2021/09/10 01:37:57;;;;;;;12.53;10.83;;;19.30;1.00;;;;;;4951863;28;20487;-78
2021/09/10 01:40:24;;;;;;;10.83;9.20;;;19.20;1.00;;;;;;4950803;28;20192;-77
2021/09/10 01:42:51;;;;;;;12.37;9.87;;;19.20;72.50;;;;;;4952766;28;20461;-76
2021/09/10 01:45:17;;;;;;;10.80;9.10;;;19.20;99.90;;;;;;4950385;28;20920;-77
2021/09/10 01:47:43;;;;;;;13.13;9.20;;;19.10;1.00;;;;;;4952965;28;20445;-78
2021/09/10 01:50:15;;;;;;;12.33;9.60;;;19.10;1.00;;;;;;4950918;28;20458;-77
2021/09/10 01:52:41;;;;;;;12.87;10.33;;;19.10;99.90;;;;;;4953281;28;20481;-77
2021/09/10 01:55:08;;;;;;;11.30;10.10;;;19.10;99.90;;;;;;4948843;28;20452;-77
2021/09/10 01:57:35;;;;;;;10.47;9.30;;;19.10;1.00;;;;;;4945627;28;20437;-77
2021/09/10 02:00:01;;;;;;;14.30;9.30;;;19.10;99.90;;;;;;4948856;28;20449;-77
2021/09/10 02:02:26;;;;;;;13.10;9.60;;;19.10;1.00;;;;;;4950124;28;20476;-77
2021/09/10 02:04:52;;;;;;;13.80;10.10;;;19.10;1.00;;;;;;4949928;28;21006;-77
2021/09/10 02:07:18;;;;;;;11.67;9.20;;;19.10;28.10;;;;;;4950313;28;20201;-78
2021/09/10 02:09:44;;;;;;;14.57;9.43;;;19.20;99.90;;;;;;4950639;28;20485;-77
2021/09/10 02:12:09;;;;;;;10.50;9.50;;;19.20;99.90;;;;;;4951317;28;20224;-77
2021/09/10 02:14:35;;;;;;;12.23;9.67;;;19.10;13.40;;;;;;4947509;28;20232;-77
2021/09/10 02:17:02;;;;;;;11.63;9.53;;;19.20;1.00;;;;;;4948752;28;20192;-77
2021/09/10 02:19:28;;;;;;;11.70;9.30;;;19.10;1.00;;;;;;4947183;28;20490;-77
2021/09/10 02:21:53;;;;;;;13.03;9.50;;;19.10;1.00;;;;;;4948169;28;20550;-77
2021/09/10 02:24:19;;;;;;;10.67;9.17;;;19.10;1.00;;;;;;4947273;28;20214;-77
2021/09/10 02:26:46;;;;;;;16.50;9.90;;;19.10;1.00;;;;;;4948615;28;20273;-77
2021/09/10 02:29:11;;;;;;;9.67;8.27;;;19.10;1.00;;;;;;4952452;28;20186;-77
2021/09/10 02:31:37;;;;;;;9.93;8.90;;;19.10;93.90;;;;;;4948020;28;20486;-77
2021/09/10 02:34:03;;;;;;;9.80;8.43;;;19.10;99.90;;;;;;4949211;28;20217;-77
2021/09/10 02:36:29;;;;;;;11.57;9.30;;;19.10;99.90;;;;;;4952312;28;20217;-77
2021/09/10 02:38:55;;;;;;;10.10;9.00;;;19.10;99.90;;;;;;4947556;28;20465;-77
2021/09/10 02:41:21;;;;;;;13.50;9.50;;;19.00;99.90;;;;;;4946481;28;20927;-77
2021/09/10 02:43:46;;;;;;;11.97;7.63;;;19.00;99.90;;;;;;4934732;28;21647;-77
2021/09/10 02:46:12;;;;;;;9.07;8.17;;;19.00;99.90;;;;;;4947552;28;20186;-78
2021/09/10 02:48:38;;;;;;;12.63;8.60;;;19.10;1.00;;;;;;4949382;28;20190;-77
2021/09/10 02:51:04;;;;;;;11.67;9.30;;;19.10;1.00;;;;;;4947568;28;20225;-77
2021/09/10 02:53:29;;;;;;;12.30;8.73;;;19.10;99.90;;;;;;4952976;28;20209;-77
2021/09/10 02:55:56;;;;;;;11.80;8.47;;;19.00;1.00;;;;;;4951856;28;20541;-77
2021/09/10 02:58:25;;;;;;;11.50;8.20;;;19.00;1.00;;;;;;4950058;28;20261;-77
2021/09/10 03:00:51;;;;;;;13.10;8.90;;;19.00;1.00;;;;;;4948521;28;20467;-78
2021/09/10 03:03:17;;;;;;;9.93;8.20;;;18.90;1.00;;;;;;4952394;28;20449;-77
2021/09/10 03:05:43;;;;;;;9.03;7.87;;;18.90;1.00;;;;;;4954410;28;20181;-77
2021/09/10 03:08:09;;;;;;;9.50;8.50;;;18.90;1.00;;;;;;4949108;28;21299;-77
2021/09/10 03:10:34;;;;;;;10.40;8.10;;;18.90;1.00;;;;;;4950605;28;20209;-77
2021/09/10 03:13:00;;;;;;;12.83;9.63;;;18.80;1.00;;;;;;4938683;28;20667;-78
2021/09/10 03:15:26;;;;;;;10.20;8.83;;;18.90;99.90;;;;;;4952864;28;20191;-77
2021/09/10 03:17:51;;;;;;;9.43;8.53;;;18.80;1.00;;;;;;4948979;28;20190;-78
2021/09/10 03:20:17;;;;;;;10.40;8.63;;;18.80;1.00;;;;;;4948138;28;20186;-77
2021/09/10 03:22:42;;;;;;;10.10;9.10;;;18.80;1.00;;;;;;4942369;28;20324;-77
2021/09/10 03:25:08;;;;;;;10.67;8.80;;;18.70;6.90;;;;;;4942254;28;21540;-77
2021/09/10 03:27:35;;;;;;;14.00;9.73;;;18.70;99.90;;;;;;4947467;28;20189;-77
2021/09/10 03:30:03;;;;;;;11.27;8.93;;;18.70;99.90;;;;;;4955259;28;20461;-77
2021/09/10 03:32:29;;;;;;;11.60;9.40;;;18.70;1.00;;;;;;4948684;28;20505;-77
2021/09/10 03:34:54;;;;;;;9.80;8.80;;;18.80;1.00;;;;;;4949552;28;20970;-77
2021/09/10 03:37:20;;;;;;;9.80;8.57;;;18.80;99.90;;;;;;4952953;28;20181;-77
2021/09/10 03:39:45;;;;;;;11.70;9.00;;;18.80;99.90;;;;;;4954309;28;20218;-77
2021/09/10 03:42:11;;;;;;;11.50;8.77;;;18.80;99.90;;;;;;4955282;28;20268;-77
2021/09/10 03:44:37;;;;;;;9.80;8.40;;;18.80;14.50;;;;;;4958310;28;20217;-77
2021/09/10 03:47:04;;;;;;;8.87;8.07;;;18.80;1.00;;;;;;4949323;28;20550;-77
2021/09/10 03:49:34;;;;;;;16.67;8.67;;;18.70;1.00;;;;;;4956554;28;20464;-78
2021/09/10 03:52:00;;;;;;;10.30;8.00;;;18.70;1.00;;;;;;4955931;28;20547;-77
2021/09/10 03:54:26;;;;;;;12.43;8.20;;;18.60;10.40;;;;;;4957161;28;20543;-77
2021/09/10 03:56:51;;;;;;;11.50;8.57;;;18.60;99.90;;;;;;4953151;28;20472;-77
2021/09/10 03:59:17;;;;;;;10.43;9.20;;;18.60;99.90;;;;;;4954974;28;20233;-77
2021/09/10 04:01:42;;;;;;;10.60;9.37;;;18.50;99.90;;;;;;4956932;28;20212;-77
2021/09/10 04:04:08;;;;;;;10.70;9.60;;;18.50;1.00;;;;;;4952419;28;20197;-77
2021/09/10 04:06:34;;;;;;;12.87;9.73;;;18.50;1.00;;;;;;4949362;28;20289;-77
2021/09/10 04:09:00;;;;;;;10.40;9.13;;;18.50;1.00;;;;;;4952801;28;20217;-77
2021/09/10 04:11:26;;;;;;;10.80;9.67;;;18.50;99.90;;;;;;4954539;28;20473;-77
2021/09/10 04:13:53;;;;;;;10.43;9.43;;;18.50;93.90;;;;;;4959219;28;20457;-77
2021/09/10 04:16:18;;;;;;;10.83;9.30;;;18.50;69.50;;;;;;4957536;28;20448;-77
2021/09/10 04:18:44;;;;;;;9.30;8.40;;;18.50;1.00;;;;;;4958840;28;20860;-78
2021/09/10 04:21:09;;;;;;;12.60;9.90;;;18.50;99.90;;;;;;4956595;28;20288;-77
2021/09/10 04:23:35;;;;;;;10.67;9.57;;;18.50;99.90;;;;;;4955480;28;20220;-77
2021/09/10 04:26:01;;;;;;;12.10;9.17;;;18.50;1.00;;;;;;4959269;28;20197;-77
2021/09/10 04:28:26;;;;;;;10.50;9.13;;;18.60;99.90;;;;;;4958867;28;20186;-77
2021/09/10 04:30:52;;;;;;;10.60;9.50;;;18.50;99.90;;;;;;4959526;28;20232;-77
2021/09/10 04:33:21;;;;;;;10.20;9.20;;;18.40;99.90;;;;;;4961479;28;20198;-77
2021/09/10 04:35:46;;;;;;;11.73;8.97;;;18.50;99.90;;;;;;4964327;28;20228;-77
2021/09/10 04:38:12;;;;;;;10.57;9.57;;;18.50;99.90;;;;;;4962415;28;20448;-77
2021/09/10 04:40:38;;;;;;;13.40;11.00;;;18.50;37.20;;;;;;4952479;28;20193;-78
2021/09/10 04:43:03;;;;;;;10.50;8.73;;;18.40;1.00;;;;;;4935304;28;20201;-78
2021/09/10 04:45:29;;;;;;;12.47;10.00;;;18.40;99.90;;;;;;4954498;28;20197;-77
2021/09/10 04:47:54;;;;;;;9.70;8.77;;;18.40;99.90;;;;;;4952137;28;21182;-77
2021/09/10 04:50:20;;;;;;;10.60;9.50;;;18.50;1.00;;;;;;4949371;28;20186;-77
2021/09/10 04:52:46;;;;;;;14.30;10.40;;;18.50;99.90;;;;;;4954543;28;20774;-77
2021/09/10 04:55:11;;;;;;;11.60;9.80;;;18.50;99.90;;;;;;4955001;28;20597;-77
2021/09/10 04:57:37;;;;;;;10.63;8.20;;;18.50;1.00;;;;;;4959716;28;20190;-77
2021/09/10 05:00:04;;;;;;;13.53;10.57;;;18.50;1.00;;;;;;4957270;28;20820;-78
2021/09/10 05:02:29;;;;;;;10.37;9.23;;;18.50;1.00;;;;;;4947900;28;20453;-77
2021/09/10 05:04:55;;;;;;;12.10;10.03;;;18.40;1.00;;;;;;4950777;28;20536;-77
2021/09/10 05:07:21;;;;;;;14.90;10.63;;;18.40;99.90;;;;;;4952016;28;20194;-77
2021/09/10 05:09:46;;;;;;;13.20;11.47;;;18.40;99.90;;;;;;4948892;28;20323;-77
2021/09/10 05:12:12;;;;;;;12.97;10.90;;;18.40;99.90;;;;;;4952471;28;20225;-77
2021/09/10 05:14:37;;;;;;;12.90;10.50;;;18.40;1.00;;;;;;4944460;28;20710;-77
2021/09/10 05:17:03;;;;;;;12.20;10.63;;;18.30;42.60;;;;;;4955739;28;20198;-77
2021/09/10 05:19:29;;;;;;;10.90;9.80;;;18.40;99.90;;;;;;4952909;28;20186;-77
2021/09/10 05:21:54;;;;;;;12.13;10.83;;;18.40;1.00;;;;;;4951647;28;20543;-77
2021/09/10 05:24:20;;;;;;;12.40;10.60;;;18.50;1.00;;;;;;4955995;28;20693;-77
2021/09/10 05:26:46;;;;;;;14.33;10.70;;;18.50;99.90;;;;;;4953593;28;20293;-77
2021/09/10 05:29:11;;;;;;;11.90;10.33;;;18.50;99.90;;;;;;4955685;28;20203;-77
2021/09/10 05:31:37;;;;;;;11.77;10.50;;;18.50;1.00;;;;;;4954060;28;20856;-77
2021/09/10 05:34:03;;;;;;;12.07;10.77;;;18.50;1.00;;;;;;4937341;28;20187;-76
2021/09/10 05:36:28;;;;;;;12.27;9.63;;;18.50;1.00;;;;;;4947509;28;20257;-76
2021/09/10 05:38:54;;;;;;;14.73;10.77;;;18.50;99.90;;;;;;4951655;28;20476;-77
2021/09/10 05:41:20;;;;;;;13.50;9.90;;;18.40;1.00;;;;;;4953429;28;20194;-76
2021/09/10 05:43:45;;;;;;;10.47;9.47;;;18.50;99.90;;;;;;4952254;28;22589;-76
2021/09/10 05:46:11;;;;;;;12.73;9.87;;;18.50;1.00;;;;;;4953187;28;20217;-77
2021/09/10 05:48:37;;;;;;;11.47;10.07;;;18.50;1.00;;;;;;4954675;28;20575;-77
2021/09/10 05:51:03;;;;;;;11.27;10.07;;;18.50;1.00;;;;;;4951459;28;20719;-77
2021/09/10 05:53:29;;;;;;;12.40;10.73;;;18.50;99.90;;;;;;4952091;28;20217;-76
2021/09/10 05:55:55;;;;;;;11.60;10.40;;;18.40;1.00;;;;;;4949050;28;20185;-77
2021/09/10 05:58:21;;;;;;;13.20;10.40;;;18.40;99.90;;;;;;4950426;28;20485;-77
2021/09/10 06:00:46;;;;;;;13.67;10.83;;;18.40;1.00;;;;;;4949477;28;20453;-76
2021/09/10 06:03:12;;;;;;;12.90;10.10;;;18.40;99.90;;;;;;4947677;28;20219;-76
2021/09/10 06:05:37;;;;;;;12.83;10.67;;;18.40;99.90;;;;;;4949317;28;20257;-77
2021/09/10 06:08:03;;;;;;;13.07;10.50;;;18.30;99.90;;;;;;4952514;28;20730;-77
2021/09/10 06:10:29;;;;;;;15.23;11.27;;;18.40;99.90;;;;;;4950482;28;20225;-77
2021/09/10 06:12:54;;;;;;;12.50;11.20;;;18.40;1.00;;;;;;4953117;28;20320;-77
2021/09/10 06:15:20;;;;;;;12.43;10.03;;;18.40;1.00;;;;;;4955448;28;20177;-76
2021/09/10 06:17:46;;;;;;;15.60;9.93;;;18.50;1.00;;;;;;4953944;28;20182;-77
2021/09/10 06:20:12;;;;;;;10.97;9.93;;;18.50;1.00;;;;;;4955366;28;20186;-77
2021/09/10 06:22:38;;;;;;;18.47;11.00;;;18.50;99.90;;;;;;4955612;28;20190;-76
2021/09/10 06:25:05;;;;;;;13.70;11.03;;;18.60;99.90;;;;;;4953753;28;20206;-76
2021/09/10 06:27:32;;;;;;;11.70;9.90;;;18.60;99.90;;;;;;4950639;28;20453;-76
2021/09/10 06:29:58;;;;;;;10.27;9.13;;;18.80;99.90;;;;;;4951715;28;20449;-76
2021/09/10 06:32:26;;;;;;;11.80;9.27;;;18.90;99.90;;;;;;4950808;28;20466;-76
2021/09/10 06:34:52;;;;;;;9.67;8.60;;;18.90;99.90;;;;;;4952389;28;20281;-76
2021/09/10 06:37:18;;;;;;;10.57;9.50;;;19.00;99.90;;;;;;4953633;28;20441;-76
2021/09/10 06:39:45;;;;;;;11.00;9.30;;;19.00;99.90;;;;;;4948475;28;20473;-77
2021/09/10 06:42:11;;;;;;;12.00;9.37;;;19.00;99.90;;;;;;4951328;28;20449;-76
2021/09/10 06:44:36;;;;;;;12.50;9.23;;;19.00;99.90;;;;;;4949310;28;20499;-77
2021/09/10 06:47:02;;;;;;;15.80;8.23;;;19.10;93.80;;;;;;4952177;28;20676;-76
2021/09/10 06:49:28;;;;;;;14.20;9.00;;;19.10;29.50;;;;;;4953436;28;20194;-76
2021/09/10 06:51:53;;;;;;;9.80;8.70;;;19.30;1.00;;;;;;4949937;28;20374;-77
2021/09/10 06:54:19;;;;;;;11.43;10.23;;;19.30;1.00;;;;;;4947639;28;20197;-76
2021/09/10 06:56:45;;;;;;;10.80;8.20;;;19.40;1.00;;;;;;4932080;28;20197;-76
2021/09/10 06:59:11;;;;;;;10.70;9.30;;;19.50;1.00;;;;;;4952473;28;20182;-76
2021/09/10 07:01:37;;;;;;;14.77;8.43;;;19.60;1.00;;;;;;4949755;28;20218;-77
2021/09/10 07:04:03;;;;;;;10.27;8.70;;;19.60;99.90;;;;;;4945053;28;20454;-77
2021/09/10 07:06:30;;;;;;;12.40;7.90;;;19.60;99.90;;;;;;4945695;28;20190;-79
2021/09/10 07:08:57;;;;;;;9.80;7.83;;;19.60;99.90;;;;;;4950675;28;20218;-76
2021/09/10 07:11:22;;;;;;;9.50;7.83;;;19.60;99.90;;;;;;4948421;28;20500;-77
2021/09/10 07:13:49;;;;;;;9.17;7.73;;;19.70;99.90;;;;;;4948972;28;20457;-76
2021/09/10 07:16:15;;;;;;;10.70;8.00;;;19.70;99.90;;;;;;4952435;28;20194;-77
2021/09/10 07:18:40;;;;;;;8.80;7.90;;;19.70;99.90;;;;;;4935855;28;20862;-76
2021/09/10 07:21:06;;;;;;;12.27;8.33;;;19.70;99.90;;;;;;4951239;28;20229;-76
2021/09/10 07:23:32;;;;;;;8.40;7.60;;;19.80;99.90;;;;;;4934716;28;20708;-77
2021/09/10 07:26:02;;;;;;;8.33;7.50;;;19.90;99.90;;;;;;4953649;28;20221;-76
2021/09/10 07:28:29;;;;;;;9.67;7.60;;;20.10;99.90;;;;;;4951136;28;20528;-78
2021/09/10 07:30:55;;;;;;;7.97;7.17;;;20.10;99.90;;;;;;4956187;28;20957;-78
2021/09/10 07:33:21;;;;;;;8.43;7.53;;;20.10;99.90;;;;;;4949170;28;20570;-77
2021/09/10 07:35:46;;;;;;;7.70;6.93;;;20.10;99.90;;;;;;4952080;28;20629;-78
2021/09/10 07:38:12;;;;;;;7.00;5.90;;;20.20;99.90;;;;;;4950824;28;20190;-77
2021/09/10 07:40:37;;;;;;;7.60;6.30;;;20.20;99.90;;;;;;4950371;28;20205;-77
2021/09/10 07:43:03;;;;;;;7.10;5.90;;;20.10;99.90;;;;;;4945617;28;20543;-77
2021/09/10 07:45:29;;;;;;;8.17;6.67;;;20.30;99.90;;;;;;4950660;28;20188;-78
2021/09/10 07:47:54;;;;;;;6.87;6.00;;;20.30;99.90;;;;;;4949581;28;20216;-78
2021/09/10 07:50:20;;;;;;;6.73;5.90;;;20.50;99.90;;;;;;4942619;28;20197;-78
2021/09/10 07:52:45;;;;;;;9.00;6.27;;;20.70;99.90;;;;;;4946782;28;20692;-77
2021/09/10 07:55:11;;;;;;;7.00;6.30;;;20.80;99.90;;;;;;4948479;28;20199;-78
2021/09/10 07:57:37;;;;;;;6.93;5.80;;;20.90;90.60;;;;;;4940901;28;20295;-77
2021/09/10 08:00:04;;;;;;;7.37;5.60;;;20.90;24.00;;;;;;4955569;28;20264;-77
2021/09/10 08:02:29;;;;;;;7.10;5.20;;;21.00;21.00;;;;;;4950494;28;20918;-78
2021/09/10 08:04:56;;;;;;;5.60;5.10;;;21.10;11.60;;;;;;4952986;28;20540;-77
2021/09/10 08:07:22;;;;;;;8.03;5.33;;;21.20;11.50;;;;;;4951289;28;20194;-77
2021/09/10 08:09:47;;;;;;;6.40;5.07;;;21.30;2.40;;;;;;4952647;28;20522;-78
2021/09/10 08:12:13;;;;;;;7.87;5.47;;;21.30;1.00;;;;;;4953176;28;20214;-77
2021/09/10 08:14:39;;;;;;;5.80;4.80;;;21.30;1.00;;;;;;4951894;28;20194;-78
2021/09/10 08:17:04;;;;;;;6.00;4.40;;;21.40;1.00;;;;;;4952588;28;20264;-78
2021/09/10 08:19:30;;;;;;;6.13;4.77;;;21.50;1.00;;;;;;4948182;28;20276;-78
2021/09/10 08:21:56;;;;;;;6.80;3.97;;;21.50;1.00;;;;;;4953399;28;20294;-78
2021/09/10 08:24:22;;;;;;;11.77;5.07;;;21.70;1.00;;;;;;4949882;28;20205;-78
2021/09/10 08:26:47;;;;;;;9.23;4.27;;;21.80;1.00;;;;;;4954482;28;20223;-77
2021/09/10 08:29:13;;;;;;;4.30;3.90;;;21.80;1.00;;;;;;4953555;28;20186;-78
2021/09/10 08:31:39;;;;;;;14.80;6.53;;;21.90;1.00;;;;;;4956004;28;20292;-78
2021/09/10 08:34:05;;;;;;;5.27;4.70;;;22.10;1.00;;;;;;4956742;28;20469;-78
2021/09/10 08:36:32;;;;;;;5.23;4.73;;;22.20;1.00;;;;;;4944536;28;20189;-78
2021/09/10 08:38:59;;;;;;;8.23;4.83;;;22.20;1.00;;;;;;4953409;28;20456;-78
2021/09/10 08:41:26;;;;;;;5.33;4.30;;;22.20;1.00;;;;;;4957756;28;20507;-78
2021/09/10 08:43:56;;;;;;;7.03;5.20;;;22.10;1.00;;;;;;4955729;28;20449;-78
2021/09/10 08:46:21;;;;;;;7.43;4.90;;;22.10;1.00;;;;;;4954857;28;20460;-78
2021/09/10 08:48:47;;;;;;;6.90;5.00;;;22.00;1.00;;;;;;4942585;28;20457;-78
2021/09/10 08:51:14;;;;;;;5.80;4.10;;;22.10;1.00;;;;;;4955071;28;20186;-78
2021/09/10 08:53:40;;;;;;;5.53;4.50;;;22.20;1.00;;;;;;4960184;28;20216;-78
2021/09/10 08:56:06;;;;;;;5.70;4.23;;;22.20;1.00;;;;;;4954114;28;20465;-78
2021/09/10 08:58:32;;;;;;;4.33;3.93;;;22.20;1.00;;;;;;4955494;28;20496;-78
2021/09/10 09:00:59;;;;;;;5.73;4.00;;;22.10;1.00;;;;;;4951741;28;20181;-78
2021/09/10 09:03:33;;;;;;;6.93;4.33;;;22.20;1.00;;;;;;4953178;28;20194;-79
2021/09/10 09:05:59;;;;;;;4.40;3.50;;;22.30;1.00;;;;;;4955897;28;20454;-77
2021/09/10 09:08:25;;;;;;;10.13;4.43;;;22.20;1.00;;;;;;4948182;28;20438;-78
2021/09/10 09:11:24;;;;;;;6.50;3.47;;;22.20;1.00;;;;;;4943696;28;20480;-78
2021/09/10 09:13:53;;;;;;;4.63;3.10;;;22.30;1.00;;;;;;4940157;28;20460;-78
2021/09/10 09:16:29;;;;;;;5.73;3.30;;;22.50;1.00;;;;;;4945740;28;20441;-78
2021/09/10 09:19:00;;;;;;;6.37;4.30;;;22.50;1.00;;;;;;4954443;28;20444;-78
2021/09/10 09:21:29;;;;;;;5.40;3.63;;;22.60;1.00;;;;;;4949917;28;20484;-78
2021/09/10 09:23:57;;;;;;;8.27;4.67;;;22.80;1.00;;;;;;4951710;28;20576;-78
2021/09/10 09:26:29;;;;;;;5.80;3.87;;;22.90;1.00;;;;;;4946064;28;21242;-78
2021/09/10 09:29:07;;;;;;;5.37;3.70;;;22.90;1.00;;;;;;4952815;28;20468;-78
2021/09/10 09:31:33;;;;;;;10.50;4.33;;;22.90;1.00;;;;;;4946709;28;20481;-79
2021/09/10 09:33:59;;;;;;;5.37;3.80;;;22.90;1.00;;;;;;4947186;28;20480;-78
2021/09/10 09:36:25;;;;;;;8.17;3.93;;;22.80;1.00;;;;;;4941556;28;20591;-78
2021/09/10 09:38:51;;;;;;;4.10;3.70;;;22.60;1.00;;;;;;4948585;28;21390;-78
2021/09/10 09:41:22;;;;;;;4.23;3.60;;;22.40;1.00;;;;;;4940687;28;20193;-78
2021/09/10 09:43:50;;;;;;;6.13;3.93;;;22.40;1.00;;;;;;4952992;28;20589;-79
2021/09/10 09:46:18;;;;;;;5.67;3.70;;;22.50;1.00;;;;;;4950408;28;20449;-79
2021/09/10 09:48:47;;;;;;;3.97;3.30;;;22.40;1.00;;;;;;4952942;28;20445;-79
2021/09/10 09:51:15;;;;;;;7.83;4.13;;;22.40;1.00;;;;;;4954165;28;20457;-79
2021/09/10 09:53:43;;;;;;;4.70;3.73;;;22.50;1.00;;;;;;4952558;28;20496;-78
2021/09/10 09:56:10;;;;;;;5.80;3.63;;;22.50;1.00;;;;;;4952056;28;20473;-78
2021/09/10 09:58:37;;;;;;;6.13;3.60;;;22.60;1.00;;;;;;4949010;28;20460;-78
2021/09/10 10:01:03;;;;;;;4.00;3.37;;;22.70;1.00;;;;;;4953220;28;20469;-78
2021/09/10 10:03:29;;;;;;;4.90;3.57;;;22.90;1.00;;;;;;4950753;28;20465;-79
2021/09/10 10:06:02;;;;;;;4.60;3.47;;;22.90;1.00;;;;;;4951963;28;20449;-79
2021/09/10 10:08:51;;;;;;;6.10;4.10;;;23.10;1.00;;;;;;4952713;28;20190;-78
2021/09/10 10:11:22;;;;;;;4.27;3.87;;;23.00;1.00;;;;;;4952809;28;20469;-77
2021/09/10 10:13:59;;;;;;;7.13;3.13;;;22.90;1.00;;;;;;4953401;28;20476;-77
2021/09/10 10:16:38;;;;;;;5.67;3.27;;;22.70;1.00;;;;;;4955392;28;20483;-78
2021/09/10 10:19:06;;;;;;;6.40;3.17;;;22.70;1.00;;;;;;4950985;28;20544;-77
2021/09/10 10:21:59;;;;;;;4.70;3.47;;;22.60;1.00;;;;;;4950163;28;20943;-77
2021/09/10 10:24:38;;;;;;;4.90;3.33;;;22.60;1.00;;;;;;4953691;28;20838;-78
2021/09/10 10:27:27;;;;;;;4.67;3.50;;;22.80;1.00;;;;;;4951185;28;20523;-78
2021/09/10 10:29:53;;;;;;;5.30;3.67;;;22.60;1.00;;;;;;4951753;28;21045;-78
2021/09/10 10:32:39;;;;;;;6.20;3.67;;;22.60;1.00;;;;;;4946910;28;20501;-77
2021/09/10 10:35:22;;;;;;;6.70;5.50;;;22.50;1.00;;;;;;4955715;28;20216;-78
2021/09/10 10:37:51;;;;;;;6.93;4.30;;;22.40;1.00;;;;;;4951877;28;20572;-78
2021/09/10 10:40:35;;;;;;;6.50;4.40;;;22.30;1.00;;;;;;4953530;28;21371;-77
2021/09/10 10:43:05;;;;;;;6.33;4.47;;;22.30;1.00;;;;;;4954167;28;21394;-77
2021/09/10 10:45:44;;;;;;;6.00;4.20;;;22.40;1.00;;;;;;4950942;28;20505;-77
2021/09/10 10:48:33;;;;;;;5.30;4.27;;;22.40;1.00;;;;;;4949790;28;21233;-78
2021/09/10 10:51:19;;;;;;;4.80;4.17;;;22.60;1.00;;;;;;4953090;28;20450;-78
2021/09/10 10:53:45;;;;;;;7.20;4.10;;;22.60;1.00;;;;;;4950527;28;20881;-78
2021/09/10 10:56:29;;;;;;;5.73;4.50;;;22.50;1.00;;;;;;4950429;28;21092;-78
2021/09/10 10:59:13;;;;;;;5.23;3.67;;;22.50;1.00;;;;;;4953126;28;20204;-79
2021/09/10 11:02:19;;;;;;;5.87;4.20;;;22.30;1.00;;;;;;4950789;28;20484;-78
2021/09/10 11:05:05;;;;;;;9.23;4.20;;;22.30;1.00;;;;;;4951062;28;20450;-78
2021/09/10 11:07:32;;;;;;;5.63;3.57;;;22.30;1.00;;;;;;4952012;28;20453;-77
2021/09/10 11:10:21;;;;;;;5.70;3.73;;;22.20;1.00;;;;;;4953198;28;20525;-78
2021/09/10 11:12:55;;;;;;;6.33;3.40;;;22.20;1.00;;;;;;4947367;28;20946;-77
2021/09/10 11:15:28;;;;;;;6.20;3.53;;;22.20;1.00;;;;;;4946878;28;20465;-78
2021/09/10 11:18:09;;;;;;;3.67;3.37;;;22.20;1.00;;;;;;4951841;28;20460;-78
2021/09/10 11:20:37;;;;;;;4.60;3.40;;;22.00;1.00;;;;;;4950110;28;20557;-77
2021/09/10 11:23:24;;;;;;;3.97;2.97;;;22.00;1.00;;;;;;4952333;28;20541;-77
2021/09/10 11:25:55;;;;;;;8.07;4.33;;;22.00;1.00;;;;;;4953783;28;20539;-77
2021/09/10 11:28:22;;;;;;;5.30;4.80;;;21.90;1.00;;;;;;4951404;28;20508;-77
2021/09/10 11:30:50;;;;;;;6.47;4.90;;;21.80;1.00;;;;;;4947383;28;20450;-77
2021/09/10 11:33:17;;;;;;;5.80;5.00;;;21.70;1.00;;;;;;4951778;28;20470;-77
2021/09/10 11:35:46;;;;;;;6.07;5.47;;;21.70;1.00;;;;;;4949869;28;20450;-78
2021/09/10 11:38:17;;;;;;;6.70;5.03;;;21.50;1.00;;;;;;4951226;28;21004;-78
2021/09/10 11:40:44;;;;;;;7.20;5.50;;;21.30;1.00;;;;;;4946416;28;20445;-77
2021/09/10 11:43:16;;;;;;;7.07;6.10;;;21.20;1.00;;;;;;4950636;28;20594;-78
2021/09/10 11:45:52;;;;;;;9.00;6.20;;;21.10;1.00;;;;;;4953361;28;20528;-78
2021/09/10 11:48:26;;;;;;;7.03;6.20;;;21.10;1.00;;;;;;4935999;28;20456;-78
2021/09/10 11:51:00;;;;;;;6.00;5.40;;;21.20;6.60;;;;;;4950337;28;20535;-78
2021/09/10 11:53:35;;;;;;;7.33;6.40;;;21.20;2.40;;;;;;4940357;28;20471;-78
2021/09/10 11:56:09;;;;;;;7.70;6.20;;;21.10;35.50;;;;;;4953516;28;20456;-77
2021/09/10 11:58:43;;;;;;;6.70;6.00;;;21.10;99.90;;;;;;4951107;28;20457;-78
2021/09/10 12:01:14;;;;;;;8.70;6.80;;;21.10;91.40;;;;;;4946719;28;20444;-78
2021/09/10 12:03:53;;;;;;;11.63;7.20;;;21.00;50.50;;;;;;4952400;28;20535;-78
2021/09/10 12:06:23;;;;;;;7.00;6.30;;;20.90;92.90;;;;;;4953088;28;20834;-78
2021/09/10 12:09:15;;;;;;;10.10;6.73;;;20.90;99.90;;;;;;4952181;28;20473;-78
2021/09/10 12:12:02;;;;;;;7.63;6.83;;;21.00;99.90;;;;;;4950084;28;20543;-78
2021/09/10 12:14:43;;;;;;;8.67;6.20;;;21.00;99.90;;;;;;4951443;28;20829;-78
2021/09/10 12:17:35;;;;;;;6.73;5.60;;;20.90;63.50;;;;;;4953406;28;20442;-77
2021/09/10 12:20:15;;;;;;;6.73;5.53;;;21.00;99.90;;;;;;4951860;28;20457;-78
2021/09/10 12:22:50;;;;;;;6.87;4.97;;;21.10;99.90;;;;;;4948250;28;20461;-78
2021/09/10 12:27:56;;;;;;;6.73;5.13;;;21.10;52.20;;;;;;4950528;28;20460;-78
2021/09/10 12:30:26;;;;;;;6.03;4.90;;;21.20;50.70;;;;;;4945018;28;20464;-77
2021/09/10 12:32:52;;;;;;;5.60;4.60;;;21.10;16.50;;;;;;4949213;28;20477;-78
2021/09/10 12:35:20;;;;;;;6.00;5.17;;;21.20;1.00;;;;;;4951708;28;20520;-77
2021/09/10 12:37:53;;;;;;;5.63;5.00;;;21.30;1.00;;;;;;4951635;28;20446;-77
2021/09/10 12:40:20;;;;;;;6.73;4.90;;;21.40;24.90;;;;;;4953749;28;20493;-77
2021/09/10 12:42:48;;;;;;;6.37;4.50;;;21.40;5.60;;;;;;4950257;28;20469;-77
2021/09/10 12:45:15;;;;;;;6.57;4.30;;;21.50;38.10;;;;;;4951389;28;20470;-78
2021/09/10 12:47:41;;;;;;;5.70;4.23;;;21.70;1.00;;;;;;4953687;28;20452;-77
2021/09/10 12:50:08;;;;;;;4.57;4.17;;;21.80;1.00;;;;;;4954484;28;20467;-77
2021/09/10 12:52:35;;;;;;;5.60;4.50;;;21.80;1.00;;;;;;4952767;28;20475;-78